Mascotte, Florida
Current Conditions -  °F | °C
As of 8:53 PM on Saturday 25 Oct 2014 (Local Time) from KLEE Reporting Station
Clear Clear  
Wind Chill: 62°   Ceiling: Unl
Heat Index: 62°   Visibility: 10mi
Dew Point: 54°   Wind: 3mph
Humidity: 75%   Direction: 20°NNE
Pressure: 30"   Gusts: NA
Location:  28.58°N, 81.89°W
Report Text: KLEE 260053Z AUTO 02003KT 10SM CLR 17/12 A3000 RMK AO2 SLP158 T01670122
Loading
Personal Weather Stations






























Interactive Weather Map
Tropical Storm Tracking
New forecast layout! Learn more

10-Day Weather Forecast

Advertisements
Track Severe Weather on mobile